sensor_id;sensor_type;location;lat;lon;timestamp;temperature;humidity
19007;DHT22;9636;47.382;8.480;2022-07-15T00:00:52;22.70;99.90
19007;DHT22;9636;47.382;8.480;2022-07-15T00:03:19;22.70;99.90
19007;DHT22;9636;47.382;8.480;2022-07-15T00:05:45;22.70;99.90
19007;DHT22;9636;47.382;8.480;2022-07-15T00:08:12;22.70;99.90
19007;DHT22;9636;47.382;8.480;2022-07-15T00:10:40;22.70;99.90
19007;DHT22;9636;47.382;8.480;2022-07-15T00:13:07;22.60;99.90
19007;DHT22;9636;47.382;8.480;2022-07-15T00:15:34;22.60;99.90
19007;DHT22;9636;47.382;8.480;2022-07-15T00:18:01;22.60;99.90
19007;DHT22;9636;47.382;8.480;2022-07-15T00:20:29;22.60;99.90
19007;DHT22;9636;47.382;8.480;2022-07-15T00:23:00;22.50;99.90
19007;DHT22;9636;47.382;8.480;2022-07-15T00:25:27;22.50;99.90
19007;DHT22;9636;47.382;8.480;2022-07-15T00:27:56;22.40;99.90
19007;DHT22;9636;47.382;8.480;2022-07-15T00:30:26;22.40;99.90
19007;DHT22;9636;47.382;8.480;2022-07-15T00:32:54;22.40;99.90
19007;DHT22;9636;47.382;8.480;2022-07-15T00:35:21;22.40;99.90
19007;DHT22;9636;47.382;8.480;2022-07-15T00:37:47;22.40;99.90
19007;DHT22;9636;47.382;8.480;2022-07-15T00:40:14;22.30;99.90
19007;DHT22;9636;47.382;8.480;2022-07-15T00:42:41;22.30;99.90
19007;DHT22;9636;47.382;8.480;2022-07-15T00:45:12;22.30;99.90
19007;DHT22;9636;47.382;8.480;2022-07-15T00:47:41;22.30;99.90
19007;DHT22;9636;47.382;8.480;2022-07-15T00:50:08;22.30;99.90
19007;DHT22;9636;47.382;8.480;2022-07-15T00:52:39;22.30;99.90
19007;DHT22;9636;47.382;8.480;2022-07-15T00:55:08;22.20;99.90
19007;DHT22;9636;47.382;8.480;2022-07-15T00:57:37;22.30;99.90
19007;DHT22;9636;47.382;8.480;2022-07-15T01:00:06;22.30;99.90
19007;DHT22;9636;47.382;8.480;2022-07-15T01:02:36;22.20;99.90
19007;DHT22;9636;47.382;8.480;2022-07-15T01:05:05;22.20;99.90
19007;DHT22;9636;47.382;8.480;2022-07-15T01:07:32;22.20;99.90
19007;DHT22;9636;47.382;8.480;2022-07-15T01:09:59;22.20;99.90
19007;DHT22;9636;47.382;8.480;2022-07-15T01:12:26;22.30;99.90
19007;DHT22;9636;47.382;8.480;2022-07-15T01:14:53;22.20;99.90
19007;DHT22;9636;47.382;8.480;2022-07-15T01:17:21;22.20;99.90
19007;DHT22;9636;47.382;8.480;2022-07-15T01:19:49;22.20;99.90
19007;DHT22;9636;47.382;8.480;2022-07-15T01:22:17;22.10;99.90
19007;DHT22;9636;47.382;8.480;2022-07-15T01:24:44;22.10;99.90
19007;DHT22;9636;47.382;8.480;2022-07-15T01:27:11;22.10;99.90
19007;DHT22;9636;47.382;8.480;2022-07-15T01:29:38;22.10;99.90
19007;DHT22;9636;47.382;8.480;2022-07-15T01:32:05;22.10;99.90
19007;DHT22;9636;47.382;8.480;2022-07-15T01:34:32;22.00;99.90
19007;DHT22;9636;47.382;8.480;2022-07-15T01:36:59;22.00;99.90
19007;DHT22;9636;47.382;8.480;2022-07-15T01:39:27;22.10;99.90
19007;DHT22;9636;47.382;8.480;2022-07-15T01:41:54;22.10;99.90
19007;DHT22;9636;47.382;8.480;2022-07-15T01:44:21;22.10;99.90
19007;DHT22;9636;47.382;8.480;2022-07-15T01:46:48;22.00;99.90
19007;DHT22;9636;47.382;8.480;2022-07-15T01:49:15;22.00;99.90
19007;DHT22;9636;47.382;8.480;2022-07-15T01:51:52;22.00;99.90
19007;DHT22;9636;47.382;8.480;2022-07-15T01:54:20;21.90;99.90
19007;DHT22;9636;47.382;8.480;2022-07-15T01:56:48;21.80;99.90
19007;DHT22;9636;47.382;8.480;2022-07-15T01:59:15;21.70;99.90
19007;DHT22;9636;47.382;8.480;2022-07-15T02:01:43;21.70;99.90
19007;DHT22;9636;47.382;8.480;2022-07-15T02:04:10;21.60;99.90
19007;DHT22;9636;47.382;8.480;2022-07-15T02:06:38;21.60;99.90
19007;DHT22;9636;47.382;8.480;2022-07-15T02:09:05;21.50;99.90
19007;DHT22;9636;47.382;8.480;2022-07-15T02:11:32;21.50;99.90
19007;DHT22;9636;47.382;8.480;2022-07-15T02:14:00;21.50;99.90
19007;DHT22;9636;47.382;8.480;2022-07-15T02:16:27;21.50;99.90
19007;DHT22;9636;47.382;8.480;2022-07-15T02:18:54;21.60;99.90
19007;DHT22;9636;47.382;8.480;2022-07-15T02:21:21;21.60;99.90
19007;DHT22;9636;47.382;8.480;2022-07-15T02:23:48;21.50;99.90
19007;DHT22;9636;47.382;8.480;2022-07-15T02:26:15;21.60;99.90
19007;DHT22;9636;47.382;8.480;2022-07-15T02:28:42;21.50;99.90
19007;DHT22;9636;47.382;8.480;2022-07-15T02:31:11;21.50;99.90
19007;DHT22;9636;47.382;8.480;2022-07-15T02:33:38;21.50;99.90
19007;DHT22;9636;47.382;8.480;2022-07-15T02:36:05;21.50;99.90
19007;DHT22;9636;47.382;8.480;2022-07-15T02:38:32;21.50;99.90
19007;DHT22;9636;47.382;8.480;2022-07-15T02:40:58;21.50;99.90
19007;DHT22;9636;47.382;8.480;2022-07-15T02:43:25;21.50;99.90
19007;DHT22;9636;47.382;8.480;2022-07-15T02:45:52;21.50;99.90
19007;DHT22;9636;47.382;8.480;2022-07-15T02:48:20;21.40;99.90
19007;DHT22;9636;47.382;8.480;2022-07-15T02:50:48;21.30;99.90
19007;DHT22;9636;47.382;8.480;2022-07-15T02:53:15;21.20;99.90
19007;DHT22;9636;47.382;8.480;2022-07-15T02:55:42;21.30;99.90
19007;DHT22;9636;47.382;8.480;2022-07-15T02:58:08;21.30;99.90
19007;DHT22;9636;47.382;8.480;2022-07-15T03:00:35;21.30;99.90
19007;DHT22;9636;47.382;8.480;2022-07-15T03:03:02;21.30;99.90
19007;DHT22;9636;47.382;8.480;2022-07-15T03:05:30;21.20;99.90
19007;DHT22;9636;47.382;8.480;2022-07-15T03:07:57;21.30;99.90
19007;DHT22;9636;47.382;8.480;2022-07-15T03:10:24;21.30;99.90
19007;DHT22;9636;47.382;8.480;2022-07-15T03:12:51;21.30;99.90
19007;DHT22;9636;47.382;8.480;2022-07-15T03:15:18;21.40;99.90
19007;DHT22;9636;47.382;8.480;2022-07-15T03:17:45;21.30;99.90
19007;DHT22;9636;47.382;8.480;2022-07-15T03:20:12;21.30;99.90
19007;DHT22;9636;47.382;8.480;2022-07-15T03:22:40;21.20;99.90
19007;DHT22;9636;47.382;8.480;2022-07-15T03:25:07;21.20;99.90
19007;DHT22;9636;47.382;8.480;2022-07-15T03:27:34;21.10;99.90
19007;DHT22;9636;47.382;8.480;2022-07-15T03:30:01;21.10;99.90
19007;DHT22;9636;47.382;8.480;2022-07-15T03:32:28;21.20;99.90
19007;DHT22;9636;47.382;8.480;2022-07-15T03:34:55;21.10;99.90
19007;DHT22;9636;47.382;8.480;2022-07-15T03:37:23;21.10;99.90
19007;DHT22;9636;47.382;8.480;2022-07-15T03:39:51;21.10;99.90
19007;DHT22;9636;47.382;8.480;2022-07-15T03:42:18;21.20;99.90
19007;DHT22;9636;47.382;8.480;2022-07-15T03:44:45;21.20;99.90
19007;DHT22;9636;47.382;8.480;2022-07-15T03:47:12;21.00;99.90
19007;DHT22;9636;47.382;8.480;2022-07-15T03:49:39;20.90;99.90
19007;DHT22;9636;47.382;8.480;2022-07-15T03:52:07;21.00;99.90
19007;DHT22;9636;47.382;8.480;2022-07-15T03:54:34;21.10;99.90
19007;DHT22;9636;47.382;8.480;2022-07-15T03:57:02;21.10;99.90
19007;DHT22;9636;47.382;8.480;2022-07-15T03:59:29;21.00;99.90
19007;DHT22;9636;47.382;8.480;2022-07-15T04:01:56;20.90;99.90
19007;DHT22;9636;47.382;8.480;2022-07-15T04:04:23;20.90;99.90
19007;DHT22;9636;47.382;8.480;2022-07-15T04:06:50;20.90;99.90
19007;DHT22;9636;47.382;8.480;2022-07-15T04:09:16;20.90;99.90
19007;DHT22;9636;47.382;8.480;2022-07-15T04:11:43;20.90;99.90
19007;DHT22;9636;47.382;8.480;2022-07-15T04:14:12;20.80;99.90
19007;DHT22;9636;47.382;8.480;2022-07-15T04:16:39;20.70;99.90
19007;DHT22;9636;47.382;8.480;2022-07-15T04:19:06;20.60;99.90
19007;DHT22;9636;47.382;8.480;2022-07-15T04:21:33;20.60;99.90
19007;DHT22;9636;47.382;8.480;2022-07-15T04:24:00;20.60;99.90
19007;DHT22;9636;47.382;8.480;2022-07-15T04:26:27;20.70;99.90
19007;DHT22;9636;47.382;8.480;2022-07-15T04:28:54;20.70;99.90
19007;DHT22;9636;47.382;8.480;2022-07-15T04:31:22;20.60;99.90
19007;DHT22;9636;47.382;8.480;2022-07-15T04:33:49;20.60;99.90
19007;DHT22;9636;47.382;8.480;2022-07-15T04:36:15;20.60;99.90
19007;DHT22;9636;47.382;8.480;2022-07-15T04:38:42;20.70;99.90
19007;DHT22;9636;47.382;8.480;2022-07-15T04:41:09;20.60;99.90
19007;DHT22;9636;47.382;8.480;2022-07-15T04:43:36;20.60;99.90
19007;DHT22;9636;47.382;8.480;2022-07-15T04:46:02;20.70;99.90
19007;DHT22;9636;47.382;8.480;2022-07-15T04:48:31;20.80;99.90
19007;DHT22;9636;47.382;8.480;2022-07-15T04:51:15;20.90;99.90
19007;DHT22;9636;47.382;8.480;2022-07-15T04:53:42;21.00;99.90
19007;DHT22;9636;47.382;8.480;2022-07-15T04:56:09;20.80;99.90
19007;DHT22;9636;47.382;8.480;2022-07-15T04:58:36;20.80;99.90
19007;DHT22;9636;47.382;8.480;2022-07-15T05:01:03;20.90;99.90
19007;DHT22;9636;47.382;8.480;2022-07-15T05:03:31;20.80;99.90
19007;DHT22;9636;47.382;8.480;2022-07-15T05:05:57;20.90;99.90
19007;DHT22;9636;47.382;8.480;2022-07-15T05:08:24;21.00;99.90
19007;DHT22;9636;47.382;8.480;2022-07-15T05:10:51;21.00;99.90
19007;DHT22;9636;47.382;8.480;2022-07-15T05:13:18;21.00;99.90
19007;DHT22;9636;47.382;8.480;2022-07-15T05:15:45;21.20;99.90
19007;DHT22;9636;47.382;8.480;2022-07-15T05:18:11;21.20;99.90
19007;DHT22;9636;47.382;8.480;2022-07-15T05:20:39;21.20;99.90
19007;DHT22;9636;47.382;8.480;2022-07-15T05:23:06;21.30;99.90
19007;DHT22;9636;47.382;8.480;2022-07-15T05:25:34;21.30;99.90
19007;DHT22;9636;47.382;8.480;2022-07-15T05:28:01;21.40;99.90
19007;DHT22;9636;47.382;8.480;2022-07-15T05:30:28;21.50;99.90
19007;DHT22;9636;47.382;8.480;2022-07-15T05:32:55;21.30;99.90
19007;DHT22;9636;47.382;8.480;2022-07-15T05:35:22;21.40;99.90
19007;DHT22;9636;47.382;8.480;2022-07-15T05:37:50;21.60;99.90
19007;DHT22;9636;47.382;8.480;2022-07-15T05:40:16;21.70;99.90
19007;DHT22;9636;47.382;8.480;2022-07-15T05:42:43;21.90;99.90
19007;DHT22;9636;47.382;8.480;2022-07-15T05:45:10;22.00;99.90
19007;DHT22;9636;47.382;8.480;2022-07-15T05:47:37;21.80;99.90
19007;DHT22;9636;47.382;8.480;2022-07-15T05:50:05;22.10;99.90
19007;DHT22;9636;47.382;8.480;2022-07-15T05:52:32;22.10;99.90
19007;DHT22;9636;47.382;8.480;2022-07-15T05:55:01;22.00;99.90
19007;DHT22;9636;47.382;8.480;2022-07-15T05:57:30;22.20;99.90
19007;DHT22;9636;47.382;8.480;2022-07-15T05:59:58;22.20;99.90
19007;DHT22;9636;47.382;8.480;2022-07-15T06:02:25;22.20;99.90
19007;DHT22;9636;47.382;8.480;2022-07-15T06:04:51;22.10;99.90
19007;DHT22;9636;47.382;8.480;2022-07-15T06:07:18;22.20;99.90
19007;DHT22;9636;47.382;8.480;2022-07-15T06:09:45;22.40;99.90
19007;DHT22;9636;47.382;8.480;2022-07-15T06:12:17;22.60;99.90
19007;DHT22;9636;47.382;8.480;2022-07-15T06:14:43;22.70;99.90
19007;DHT22;9636;47.382;8.480;2022-07-15T06:17:10;22.80;99.90
19007;DHT22;9636;47.382;8.480;2022-07-15T06:19:37;22.80;99.90
19007;DHT22;9636;47.382;8.480;2022-07-15T06:22:04;22.80;99.90
19007;DHT22;9636;47.382;8.480;2022-07-15T06:24:31;22.90;99.90
19007;DHT22;9636;47.382;8.480;2022-07-15T06:26:58;23.00;99.90
19007;DHT22;9636;47.382;8.480;2022-07-15T06:29:26;23.10;99.90
19007;DHT22;9636;47.382;8.480;2022-07-15T06:31:53;23.00;99.90
19007;DHT22;9636;47.382;8.480;2022-07-15T06:34:20;23.30;99.90
19007;DHT22;9636;47.382;8.480;2022-07-15T06:36:46;23.40;99.90
19007;DHT22;9636;47.382;8.480;2022-07-15T06:39:13;23.60;99.90
19007;DHT22;9636;47.382;8.480;2022-07-15T06:41:40;23.80;99.90
19007;DHT22;9636;47.382;8.480;2022-07-15T06:44:07;23.40;99.90
19007;DHT22;9636;47.382;8.480;2022-07-15T06:46:35;23.10;99.90
19007;DHT22;9636;47.382;8.480;2022-07-15T06:49:02;22.80;99.90
19007;DHT22;9636;47.382;8.480;2022-07-15T06:51:28;23.10;99.90
19007;DHT22;9636;47.382;8.480;2022-07-15T06:53:55;23.40;99.90
19007;DHT22;9636;47.382;8.480;2022-07-15T06:56:22;23.10;99.90
19007;DHT22;9636;47.382;8.480;2022-07-15T06:58:49;23.30;99.90
19007;DHT22;9636;47.382;8.480;2022-07-15T07:01:16;23.20;99.90
19007;DHT22;9636;47.382;8.480;2022-07-15T07:03:44;23.10;99.90
19007;DHT22;9636;47.382;8.480;2022-07-15T07:06:11;23.10;99.90
19007;DHT22;9636;47.382;8.480;2022-07-15T07:08:38;23.40;99.90
19007;DHT22;9636;47.382;8.480;2022-07-15T07:11:05;23.60;99.90
19007;DHT22;9636;47.382;8.480;2022-07-15T07:13:32;23.90;99.90
19007;DHT22;9636;47.382;8.480;2022-07-15T07:15:58;24.20;99.80
19007;DHT22;9636;47.382;8.480;2022-07-15T07:18:26;24.20;99.80
19007;DHT22;9636;47.382;8.480;2022-07-15T07:20:54;24.40;99.70
19007;DHT22;9636;47.382;8.480;2022-07-15T07:23:22;24.60;99.40
19007;DHT22;9636;47.382;8.480;2022-07-15T07:25:52;24.80;99.90
19007;DHT22;9636;47.382;8.480;2022-07-15T07:28:20;25.00;98.50
19007;DHT22;9636;47.382;8.480;2022-07-15T07:30:47;25.20;98.80
19007;DHT22;9636;47.382;8.480;2022-07-15T07:33:15;25.00;99.00
19007;DHT22;9636;47.382;8.480;2022-07-15T07:35:42;24.90;98.50
19007;DHT22;9636;47.382;8.480;2022-07-15T07:38:17;24.50;99.10
19007;DHT22;9636;47.382;8.480;2022-07-15T07:40:47;24.50;99.50
19007;DHT22;9636;47.382;8.480;2022-07-15T07:43:15;24.60;98.90
19007;DHT22;9636;47.382;8.480;2022-07-15T07:45:43;24.90;99.10
19007;DHT22;9636;47.382;8.480;2022-07-15T07:48:09;25.20;98.90
19007;DHT22;9636;47.382;8.480;2022-07-15T07:50:37;25.40;98.20
19007;DHT22;9636;47.382;8.480;2022-07-15T07:53:04;25.50;98.00
19007;DHT22;9636;47.382;8.480;2022-07-15T07:55:33;25.60;98.90
19007;DHT22;9636;47.382;8.480;2022-07-15T07:57:59;25.00;98.20
19007;DHT22;9636;47.382;8.480;2022-07-15T08:00:28;25.20;98.90
19007;DHT22;9636;47.382;8.480;2022-07-15T08:02:56;25.10;98.80
19007;DHT22;9636;47.382;8.480;2022-07-15T08:05:24;25.10;99.30
19007;DHT22;9636;47.382;8.480;2022-07-15T08:07:51;25.30;98.50
19007;DHT22;9636;47.382;8.480;2022-07-15T08:10:18;25.60;99.00
19007;DHT22;9636;47.382;8.480;2022-07-15T08:12:47;25.70;98.00
19007;DHT22;9636;47.382;8.480;2022-07-15T08:15:14;25.20;98.70
19007;DHT22;9636;47.382;8.480;2022-07-15T08:17:42;25.20;98.90
19007;DHT22;9636;47.382;8.480;2022-07-15T08:20:10;25.30;98.80
19007;DHT22;9636;47.382;8.480;2022-07-15T08:22:38;25.80;99.50
19007;DHT22;9636;47.382;8.480;2022-07-15T08:25:06;25.80;98.20
19007;DHT22;9636;47.382;8.480;2022-07-15T08:27:33;25.40;98.80
19007;DHT22;9636;47.382;8.480;2022-07-15T08:30:01;25.40;98.90
19007;DHT22;9636;47.382;8.480;2022-07-15T08:32:28;25.80;98.40
19007;DHT22;9636;47.382;8.480;2022-07-15T08:34:58;25.90;98.80
19007;DHT22;9636;47.382;8.480;2022-07-15T08:37:25;26.30;98.20
19007;DHT22;9636;47.382;8.480;2022-07-15T08:39:52;26.10;98.80
19007;DHT22;9636;47.382;8.480;2022-07-15T08:42:19;26.10;98.10
19007;DHT22;9636;47.382;8.480;2022-07-15T08:44:45;25.80;98.00
19007;DHT22;9636;47.382;8.480;2022-07-15T08:47:15;25.40;98.00
19007;DHT22;9636;47.382;8.480;2022-07-15T08:49:44;25.70;98.80
19007;DHT22;9636;47.382;8.480;2022-07-15T08:52:14;25.90;98.50
19007;DHT22;9636;47.382;8.480;2022-07-15T08:54:47;26.10;98.90
19007;DHT22;9636;47.382;8.480;2022-07-15T08:57:14;26.30;97.70
19007;DHT22;9636;47.382;8.480;2022-07-15T08:59:41;26.40;97.60
19007;DHT22;9636;47.382;8.480;2022-07-15T09:02:14;26.30;97.40
19007;DHT22;9636;47.382;8.480;2022-07-15T09:07:52;27.10;98.90
19007;DHT22;9636;47.382;8.480;2022-07-15T09:10:20;27.40;97.00
19007;DHT22;9636;47.382;8.480;2022-07-15T09:12:50;27.20;97.50
19007;DHT22;9636;47.382;8.480;2022-07-15T09:15:34;27.10;98.30
19007;DHT22;9636;47.382;8.480;2022-07-15T09:18:10;27.20;96.90
19007;DHT22;9636;47.382;8.480;2022-07-15T09:20:38;27.10;96.80
19007;DHT22;9636;47.382;8.480;2022-07-15T09:23:07;27.10;96.40
19007;DHT22;9636;47.382;8.480;2022-07-15T09:25:36;27.00;97.60
19007;DHT22;9636;47.382;8.480;2022-07-15T09:28:06;27.00;97.40
19007;DHT22;9636;47.382;8.480;2022-07-15T09:30:35;26.40;96.80
19007;DHT22;9636;47.382;8.480;2022-07-15T09:33:23;26.50;97.60
19007;DHT22;9636;47.382;8.480;2022-07-15T09:36:08;26.90;96.60
19007;DHT22;9636;47.382;8.480;2022-07-15T09:38:47;26.70;96.70
19007;DHT22;9636;47.382;8.480;2022-07-15T09:41:23;26.40;96.90
19007;DHT22;9636;47.382;8.480;2022-07-15T09:43:53;26.70;97.10
19007;DHT22;9636;47.382;8.480;2022-07-15T09:46:22;26.80;96.60
19007;DHT22;9636;47.382;8.480;2022-07-15T09:48:52;26.90;96.40
19007;DHT22;9636;47.382;8.480;2022-07-15T09:51:20;27.20;97.20
19007;DHT22;9636;47.382;8.480;2022-07-15T09:53:48;27.20;96.30
19007;DHT22;9636;47.382;8.480;2022-07-15T09:56:18;26.90;97.40
19007;DHT22;9636;47.382;8.480;2022-07-15T09:58:52;27.10;96.60
19007;DHT22;9636;47.382;8.480;2022-07-15T10:01:19;27.10;96.10
19007;DHT22;9636;47.382;8.480;2022-07-15T10:03:46;27.30;96.50
19007;DHT22;9636;47.382;8.480;2022-07-15T10:06:17;27.60;96.20
19007;DHT22;9636;47.382;8.480;2022-07-15T10:08:47;27.40;96.40
19007;DHT22;9636;47.382;8.480;2022-07-15T10:11:14;27.50;95.90
19007;DHT22;9636;47.382;8.480;2022-07-15T10:14:05;26.90;96.50
19007;DHT22;9636;47.382;8.480;2022-07-15T10:22:53;26.60;96.50
19007;DHT22;9636;47.382;8.480;2022-07-15T10:25:30;26.80;96.60
19007;DHT22;9636;47.382;8.480;2022-07-15T10:28:04;26.80;98.10
19007;DHT22;9636;47.382;8.480;2022-07-15T10:30:39;26.90;98.60
19007;DHT22;9636;47.382;8.480;2022-07-15T10:33:14;27.10;97.90
19007;DHT22;9636;47.382;8.480;2022-07-15T10:35:52;26.90;96.30
19007;DHT22;9636;47.382;8.480;2022-07-15T10:38:38;26.60;96.70
19007;DHT22;9636;47.382;8.480;2022-07-15T10:41:07;26.30;96.00
19007;DHT22;9636;47.382;8.480;2022-07-15T10:43:47;26.40;96.60
19007;DHT22;9636;47.382;8.480;2022-07-15T10:46:23;26.50;96.80
19007;DHT22;9636;47.382;8.480;2022-07-15T10:48:52;26.40;96.20
19007;DHT22;9636;47.382;8.480;2022-07-15T10:51:43;26.30;96.10
19007;DHT22;9636;47.382;8.480;2022-07-15T10:54:37;26.40;97.20
19007;DHT22;9636;47.382;8.480;2022-07-15T10:57:04;26.30;96.00
19007;DHT22;9636;47.382;8.480;2022-07-15T10:59:46;26.50;96.60
19007;DHT22;9636;47.382;8.480;2022-07-15T11:02:17;26.40;96.30
19007;DHT22;9636;47.382;8.480;2022-07-15T11:04:46;26.30;96.40
19007;DHT22;9636;47.382;8.480;2022-07-15T11:07:27;26.20;96.70
19007;DHT22;9636;47.382;8.480;2022-07-15T11:13:01;26.10;96.20
19007;DHT22;9636;47.382;8.480;2022-07-15T11:15:28;26.10;97.00
19007;DHT22;9636;47.382;8.480;2022-07-15T11:17:56;26.20;96.70
19007;DHT22;9636;47.382;8.480;2022-07-15T11:20:26;26.30;97.00
19007;DHT22;9636;47.382;8.480;2022-07-15T11:22:57;26.50;96.70
19007;DHT22;9636;47.382;8.480;2022-07-15T11:25:27;26.40;96.00
19007;DHT22;9636;47.382;8.480;2022-07-15T11:27:56;26.40;96.30
19007;DHT22;9636;47.382;8.480;2022-07-15T11:30:25;26.40;96.60
19007;DHT22;9636;47.382;8.480;2022-07-15T11:32:57;26.20;95.70
19007;DHT22;9636;47.382;8.480;2022-07-15T11:35:25;26.00;96.10
19007;DHT22;9636;47.382;8.480;2022-07-15T11:37:59;26.00;96.10
19007;DHT22;9636;47.382;8.480;2022-07-15T11:43:56;25.80;96.40
19007;DHT22;9636;47.382;8.480;2022-07-15T11:46:57;25.90;96.70
19007;DHT22;9636;47.382;8.480;2022-07-15T11:49:45;26.20;97.70
19007;DHT22;9636;47.382;8.480;2022-07-15T11:52:53;26.30;96.40
19007;DHT22;9636;47.382;8.480;2022-07-15T11:56:04;26.30;98.40
19007;DHT22;9636;47.382;8.480;2022-07-15T11:58:39;26.30;96.40
19007;DHT22;9636;47.382;8.480;2022-07-15T12:01:30;26.30;96.10
19007;DHT22;9636;47.382;8.480;2022-07-15T12:04:31;26.30;96.10
19007;DHT22;9636;47.382;8.480;2022-07-15T12:07:14;26.30;96.10
19007;DHT22;9636;47.382;8.480;2022-07-15T12:13:13;26.50;96.10
19007;DHT22;9636;47.382;8.480;2022-07-15T12:16:58;26.60;96.60
19007;DHT22;9636;47.382;8.480;2022-07-15T12:19:20;26.80;97.30
19007;DHT22;9636;47.382;8.480;2022-07-15T12:22:08;26.70;95.40
19007;DHT22;9636;47.382;8.480;2022-07-15T12:25:17;26.50;96.80
19007;DHT22;9636;47.382;8.480;2022-07-15T12:28:07;26.50;96.70
19007;DHT22;9636;47.382;8.480;2022-07-15T12:33:43;26.70;97.30
19007;DHT22;9636;47.382;8.480;2022-07-15T12:36:28;26.90;98.70
19007;DHT22;9636;47.382;8.480;2022-07-15T12:46:49;27.00;94.40
19007;DHT22;9636;47.382;8.480;2022-07-15T13:02:21;26.90;93.90
19007;DHT22;9636;47.382;8.480;2022-07-15T13:08:46;27.00;96.80
19007;DHT22;9636;47.382;8.480;2022-07-15T13:12:02;27.00;93.70
19007;DHT22;9636;47.382;8.480;2022-07-15T13:16:04;27.10;94.10
19007;DHT22;9636;47.382;8.480;2022-07-15T13:17:46;27.10;94.70
19007;DHT22;9636;47.382;8.480;2022-07-15T13:23:37;27.10;95.80
19007;DHT22;9636;47.382;8.480;2022-07-15T13:26:06;27.10;94.50
19007;DHT22;9636;47.382;8.480;2022-07-15T13:28:33;26.90;92.90
19007;DHT22;9636;47.382;8.480;2022-07-15T13:31:00;26.90;93.30
19007;DHT22;9636;47.382;8.480;2022-07-15T13:33:31;26.80;93.50
19007;DHT22;9636;47.382;8.480;2022-07-15T13:35:58;26.90;95.10
19007;DHT22;9636;47.382;8.480;2022-07-15T13:38:25;26.90;92.50
19007;DHT22;9636;47.382;8.480;2022-07-15T13:40:52;27.10;93.90
19007;DHT22;9636;47.382;8.480;2022-07-15T13:43:19;27.10;93.80
19007;DHT22;9636;47.382;8.480;2022-07-15T13:45:51;27.10;93.00
19007;DHT22;9636;47.382;8.480;2022-07-15T13:48:32;27.20;91.50
19007;DHT22;9636;47.382;8.480;2022-07-15T13:51:06;27.10;91.60
19007;DHT22;9636;47.382;8.480;2022-07-15T13:54:11;27.20;90.90
19007;DHT22;9636;47.382;8.480;2022-07-15T13:56:39;27.30;90.80
19007;DHT22;9636;47.382;8.480;2022-07-15T13:59:08;27.10;90.30
19007;DHT22;9636;47.382;8.480;2022-07-15T14:01:55;27.00;90.70
19007;DHT22;9636;47.382;8.480;2022-07-15T14:04:40;27.00;90.00
19007;DHT22;9636;47.382;8.480;2022-07-15T14:07:14;27.10;90.50
19007;DHT22;9636;47.382;8.480;2022-07-15T14:10:21;27.10;90.80
19007;DHT22;9636;47.382;8.480;2022-07-15T14:12:51;27.10;92.70
19007;DHT22;9636;47.382;8.480;2022-07-15T14:18:50;27.20;91.10
19007;DHT22;9636;47.382;8.480;2022-07-15T14:21:30;27.20;91.20
19007;DHT22;9636;47.382;8.480;2022-07-15T14:24:15;27.10;91.20
19007;DHT22;9636;47.382;8.480;2022-07-15T14:27:07;27.10;92.10
19007;DHT22;9636;47.382;8.480;2022-07-15T14:33:03;27.20;93.90
19007;DHT22;9636;47.382;8.480;2022-07-15T14:35:41;27.30;92.70
19007;DHT22;9636;47.382;8.480;2022-07-15T14:38:29;27.40;92.70
19007;DHT22;9636;47.382;8.480;2022-07-15T14:44:20;27.30;94.00
19007;DHT22;9636;47.382;8.480;2022-07-15T14:47:29;27.30;93.10
19007;DHT22;9636;47.382;8.480;2022-07-15T14:50:14;27.20;89.40
19007;DHT22;9636;47.382;8.480;2022-07-15T14:52:44;27.10;88.50
19007;DHT22;9636;47.382;8.480;2022-07-15T14:55:13;27.10;89.00
19007;DHT22;9636;47.382;8.480;2022-07-15T14:57:40;27.10;89.10
19007;DHT22;9636;47.382;8.480;2022-07-15T15:00:08;27.20;90.60
19007;DHT22;9636;47.382;8.480;2022-07-15T15:02:35;27.30;91.40
19007;DHT22;9636;47.382;8.480;2022-07-15T15:05:07;27.30;92.00
19007;DHT22;9636;47.382;8.480;2022-07-15T15:07:34;27.20;92.10
19007;DHT22;9636;47.382;8.480;2022-07-15T15:10:05;27.20;91.10
19007;DHT22;9636;47.382;8.480;2022-07-15T15:12:33;27.20;90.70
19007;DHT22;9636;47.382;8.480;2022-07-15T15:15:00;27.20;90.70
19007;DHT22;9636;47.382;8.480;2022-07-15T15:17:27;27.20;91.40
19007;DHT22;9636;47.382;8.480;2022-07-15T15:19:54;27.20;91.20
19007;DHT22;9636;47.382;8.480;2022-07-15T15:22:21;27.10;90.20
19007;DHT22;9636;47.382;8.480;2022-07-15T15:24:48;27.10;91.50
19007;DHT22;9636;47.382;8.480;2022-07-15T15:27:15;27.10;91.70
19007;DHT22;9636;47.382;8.480;2022-07-15T15:29:43;27.20;90.60
19007;DHT22;9636;47.382;8.480;2022-07-15T15:32:10;27.20;89.10
19007;DHT22;9636;47.382;8.480;2022-07-15T15:34:41;27.10;90.30
19007;DHT22;9636;47.382;8.480;2022-07-15T15:37:08;27.00;87.40
19007;DHT22;9636;47.382;8.480;2022-07-15T15:39:35;27.00;89.40
19007;DHT22;9636;47.382;8.480;2022-07-15T15:42:03;27.00;87.40
19007;DHT22;9636;47.382;8.480;2022-07-15T15:44:30;27.10;87.60
19007;DHT22;9636;47.382;8.480;2022-07-15T15:46:59;27.20;90.80
19007;DHT22;9636;47.382;8.480;2022-07-15T15:49:26;27.30;87.10
19007;DHT22;9636;47.382;8.480;2022-07-15T15:51:53;27.20;87.00
19007;DHT22;9636;47.382;8.480;2022-07-15T15:54:20;27.10;87.90
19007;DHT22;9636;47.382;8.480;2022-07-15T16:01:59;27.00;90.70
19007;DHT22;9636;47.382;8.480;2022-07-15T16:04:28;27.10;90.40
19007;DHT22;9636;47.382;8.480;2022-07-15T16:06:55;27.10;90.80
19007;DHT22;9636;47.382;8.480;2022-07-15T16:09:22;27.00;90.00
19007;DHT22;9636;47.382;8.480;2022-07-15T16:11:49;27.00;90.10
19007;DHT22;9636;47.382;8.480;2022-07-15T16:14:16;26.90;90.90
19007;DHT22;9636;47.382;8.480;2022-07-15T16:16:43;26.90;89.40
19007;DHT22;9636;47.382;8.480;2022-07-15T16:19:20;27.00;90.30
19007;DHT22;9636;47.382;8.480;2022-07-15T16:21:46;26.90;90.20
19007;DHT22;9636;47.382;8.480;2022-07-15T16:24:31;26.80;88.20
19007;DHT22;9636;47.382;8.480;2022-07-15T16:26:57;26.70;89.80
19007;DHT22;9636;47.382;8.480;2022-07-15T16:29:24;26.80;90.30
19007;DHT22;9636;47.382;8.480;2022-07-15T16:31:51;26.70;90.60
19007;DHT22;9636;47.382;8.480;2022-07-15T16:34:20;26.70;90.60
19007;DHT22;9636;47.382;8.480;2022-07-15T16:36:47;26.70;91.60
19007;DHT22;9636;47.382;8.480;2022-07-15T16:39:14;26.70;92.20
19007;DHT22;9636;47.382;8.480;2022-07-15T16:41:41;26.50;91.90
19007;DHT22;9636;47.382;8.480;2022-07-15T16:44:07;26.40;91.80
19007;DHT22;9636;47.382;8.480;2022-07-15T16:46:34;26.50;91.10
19007;DHT22;9636;47.382;8.480;2022-07-15T16:49:01;26.50;92.50
19007;DHT22;9636;47.382;8.480;2022-07-15T16:51:29;26.40;91.40
19007;DHT22;9636;47.382;8.480;2022-07-15T16:53:56;26.40;91.60
19007;DHT22;9636;47.382;8.480;2022-07-15T16:56:23;26.40;91.80
19007;DHT22;9636;47.382;8.480;2022-07-15T16:58:50;26.40;91.90
19007;DHT22;9636;47.382;8.480;2022-07-15T17:01:16;26.30;92.00
19007;DHT22;9636;47.382;8.480;2022-07-15T17:03:43;26.20;92.40
19007;DHT22;9636;47.382;8.480;2022-07-15T17:06:10;26.20;92.30
19007;DHT22;9636;47.382;8.480;2022-07-15T17:08:38;26.10;92.60
19007;DHT22;9636;47.382;8.480;2022-07-15T17:11:05;26.10;91.50